New Bedford Regional Airport
KEWB : rendu visible

Aérodrome :











RETROUVEZ-NOUS SUR...

 
LOGIN :

S'inscrire | Disclaimer

   EN    FR    IT 

 









Légende :    VFR   VFR Marginal   IFR   IFR Intensif   IFR Très Intensif
Visi : 
Plafond : 
>= 8 km
>= 3000ft
5 à 8 km
1000 à 3000 ft
1500m à 5 km
500 à 1000 ft
800 à 1500m
200 à 500 ft
< 800m
< 200 ft
Symboles :   Orages  Brouillard  Fortes neiges  Fortes précipitations  Vent > 20 kt







- Altitude de l'aérodrome : 80 ft
- Code IATA : EWB


KEWB - New Bedford Regional

DERNIER METAR :
  • 200553Z AUTO 19023G33KT 8SM OVC006 17/17 A2983 RMK AO2 PK WND 20038/0509 RAE06 SLP101 P0000 60003 T01670167 10178 20161 56009

METARs EXPIRÉS :
  • 200453Z AUTO 19020G32KT 7SM -RA OVC006 17/17 A2983 RMK AO2 PK WND 20035/0432 SLP102 P0003 T01670167 402060133
  • 200406Z AUTO 20016G30KT 5SM -RA BR BKN007 OVC029 17/17 A2985 RMK AO2 PK WND 21030/0359 P0002 T01720172
  • 200353Z AUTO 20019G32KT 7SM -RA OVC008 17/17 A2984 RMK AO2 PK WND 19034/0343 RAB38 SLP106 P0000 T01720172

TAF N/A
FIR KZBW / Amérique du Nord



MET'MAP, la Météo Aéronautique d'un coup d'oeil ! - Copyright ORBIFLY Décembre 2007 - Disclaimer

ORBIFLY MET'MAP TEAM :

Programmation & Développement : Alexandra Zaïnal
Conception & Développement : Baudouin d'Aumeries
Co-Programmation & Développement : Marc-Olivier Méhu
Soutien technique & logistique : Manuel Goepfert

Contact : metmap@orbifly.com




SOURCES & CREDITS :

   NOAA       Earth
Advisory